Time;durP1;ratioP1;P1;durP2;ratioP2;P2;SDS_P1;SDS_P2;PMS_P1;PMS_P2;Temp;Humidity;BMP_temperature;BMP_pressure;BME280_temperature;BME280_humidity;BME280_pressure;Samples;Min_cycle;Max_cycle;Signal;HPM_P1;HPM_P2
2023/10/01 00:00:27;;;;;;;16.05;9.52;;;;;;;-145.50;100.00;65435.88;5051357;28;20106;-72
2023/10/01 00:02:56;;;;;;;14.32;9.70;;;;;;;-145.50;100.00;65435.88;5044035;28;20059;-72
2023/10/01 00:05:24;;;;;;;16.38;10.20;;;;;;;-145.50;100.00;65435.88;5041611;28;20056;-72
2023/10/01 00:07:51;;;;;;;14.97;9.20;;;;;;;-145.50;100.00;65435.88;5043966;28;20048;-72
2023/10/01 00:10:20;;;;;;;19.08;9.70;;;;;;;-145.50;100.00;65435.88;5048742;28;20342;-72
2023/10/01 00:12:50;;;;;;;14.35;9.85;;;;;;;-145.50;100.00;65435.88;5049470;28;20053;-72
2023/10/01 00:15:19;;;;;;;14.18;9.77;;;;;;;-145.50;100.00;65435.88;5050179;28;20063;-72
2023/10/01 00:17:48;;;;;;;15.90;9.65;;;;;;;-145.50;100.00;65435.88;5048052;28;20077;-73
2023/10/01 00:20:23;;;;;;;15.10;9.30;;;;;;;-145.50;100.00;65435.88;5046346;28;20056;-72
2023/10/01 00:22:56;;;;;;;12.90;9.25;;;;;;;-145.50;100.00;65435.88;5056721;28;20072;-72
2023/10/01 00:25:23;;;;;;;14.15;9.32;;;;;;;-145.50;100.00;65435.88;5040693;28;20829;-72
2023/10/01 00:27:51;;;;;;;15.07;9.57;;;;;;;-145.50;100.00;65435.88;5059750;28;20083;-71
2023/10/01 00:30:17;;;;;;;16.73;10.05;;;;;;;-145.50;100.00;65435.88;5040420;28;20072;-72
2023/10/01 00:32:44;;;;;;;14.80;9.27;;;;;;;-145.50;100.00;65435.88;5056403;28;20064;-72
2023/10/01 00:35:11;;;;;;;15.55;9.18;;;;;;;-145.50;100.00;65435.88;5052557;28;20477;-72
2023/10/01 00:37:38;;;;;;;15.65;9.23;;;;;;;-145.50;100.00;65435.88;5046625;28;20052;-72
2023/10/01 00:40:08;;;;;;;14.63;9.63;;;;;;;-145.50;100.00;65435.88;5049830;28;20633;-73
2023/10/01 00:42:36;;;;;;;15.32;10.07;;;;;;;-145.50;100.00;65435.88;5035629;28;20436;-72
2023/10/01 00:45:07;;;;;;;18.20;10.60;;;;;;;-145.50;100.00;65435.88;5041366;28;20068;-72
2023/10/01 00:47:40;;;;;;;15.68;9.93;;;;;;;-145.50;100.00;65435.88;5044462;28;20103;-72
2023/10/01 00:50:26;;;;;;;16.63;10.70;;;;;;;-145.50;100.00;65435.88;5053641;28;20052;-72
2023/10/01 00:52:56;;;;;;;15.15;10.15;;;;;;;-145.50;100.00;65435.88;5054490;28;20048;-72
2023/10/01 00:55:23;;;;;;;14.80;9.38;;;;;;;-145.50;100.00;65435.88;5043984;28;20072;-73
2023/10/01 00:57:53;;;;;;;16.65;10.77;;;;;;;-145.50;100.00;65435.88;5049569;28;20091;-72
2023/10/01 01:00:20;;;;;;;15.73;11.02;;;;;;;-145.50;100.00;65435.88;5044679;28;20060;-72
2023/10/01 01:03:00;;;;;;;16.08;10.25;;;;;;;-145.50;100.00;65435.88;5051013;28;20056;-72
2023/10/01 01:05:53;;;;;;;14.70;9.90;;;;;;;-145.50;100.00;65435.88;5042967;28;20053;-74
2023/10/01 01:08:22;;;;;;;17.70;10.48;;;;;;;-145.50;100.00;65435.88;5055628;28;20087;-72
2023/10/01 01:10:51;;;;;;;18.10;9.80;;;;;;;-145.50;100.00;65435.88;5060824;28;20515;-73
2023/10/01 01:13:19;;;;;;;18.27;10.55;;;;;;;-145.50;100.00;65435.88;5048435;28;20135;-74
2023/10/01 01:15:46;;;;;;;17.02;9.98;;;;;;;-145.50;100.00;65435.88;5063338;28;20056;-72
2023/10/01 01:18:20;;;;;;;16.65;9.82;;;;;;;-145.50;100.00;65435.88;5044973;28;20425;-72
2023/10/01 01:20:49;;;;;;;17.75;10.00;;;;;;;-145.50;100.00;65435.88;5057522;28;20075;-73
2023/10/01 01:23:21;;;;;;;16.33;9.93;;;;;;;-145.50;100.00;65435.88;5044307;28;20052;-72
2023/10/01 01:25:54;;;;;;;19.52;10.10;;;;;;;-145.50;100.00;65435.88;5041517;28;20107;-73
2023/10/01 01:28:27;;;;;;;16.88;9.93;;;;;;;-145.50;100.00;65435.88;5036116;28;20106;-72
2023/10/01 01:30:55;;;;;;;18.75;10.30;;;;;;;-145.50;100.00;65435.88;5060594;28;20117;-72
2023/10/01 01:33:26;;;;;;;16.58;10.48;;;;;;;-145.50;100.00;65435.88;5056369;28;20052;-72
2023/10/01 01:35:54;;;;;;;17.02;10.05;;;;;;;-145.50;100.00;65435.88;5051684;28;20155;-73
2023/10/01 01:38:21;;;;;;;12.50;8.90;;;;;;;-145.50;100.00;65435.88;5043829;28;20059;-72
2023/10/01 01:40:50;;;;;;;16.83;9.70;;;;;;;-145.50;100.00;65435.88;5047291;28;20048;-73
2023/10/01 01:43:21;;;;;;;17.67;10.30;;;;;;;-145.50;100.00;65435.88;5047292;28;20091;-72
2023/10/01 01:45:54;;;;;;;16.45;9.85;;;;;;;-145.50;100.00;65435.88;5048436;28;20561;-72
2023/10/01 01:48:25;;;;;;;19.13;10.30;;;;;;;-145.50;100.00;65435.88;5048094;28;20076;-72
2023/10/01 01:50:58;;;;;;;17.58;10.38;;;;;;;-145.50;100.00;65435.88;5046627;28;20056;-73
2023/10/01 01:53:34;;;;;;;15.90;9.90;;;;;;;-145.50;100.00;65435.88;5039141;28;20555;-72
2023/10/01 01:56:16;;;;;;;12.63;8.23;;;;;;;-145.50;100.00;65435.88;5046059;28;20971;-73
2023/10/01 01:58:47;;;;;;;15.95;9.23;;;;;;;-145.50;100.00;65435.88;5054253;28;20497;-72
2023/10/01 02:03:46;;;;;;;14.98;8.63;;;;;;;-145.50;100.00;65435.88;5042454;28;20668;-72
2023/10/01 02:06:14;;;;;;;13.68;8.10;;;;;;;-145.50;100.00;65435.88;5049265;28;20102;-72
2023/10/01 02:11:18;;;;;;;14.18;8.55;;;;;;;-145.50;100.00;65435.88;5045370;28;20827;-72
2023/10/01 02:13:51;;;;;;;13.90;8.13;;;;;;;-145.50;100.00;65435.88;5054421;28;20087;-72
2023/10/01 02:16:18;;;;;;;14.85;8.23;;;;;;;-145.50;100.00;65435.88;5049525;28;20079;-72
2023/10/01 02:18:56;;;;;;;18.52;8.15;;;;;;;-145.50;100.00;65435.88;5048044;28;20379;-73
2023/10/01 02:21:42;;;;;;;15.10;8.13;;;;;;;-145.50;100.00;65435.88;5056437;28;20566;-72
2023/10/01 02:24:13;;;;;;;14.68;7.63;;;;;;;-145.50;100.00;65435.88;5055684;28;20329;-72
2023/10/01 02:26:41;;;;;;;13.65;8.70;;;;;;;-145.50;100.00;65435.88;5052062;28;20159;-72
2023/10/01 02:29:09;;;;;;;11.33;7.63;;;;;;;-145.50;100.00;65435.88;5056036;28;20088;-72
2023/10/01 02:31:37;;;;;;;13.93;7.50;;;;;;;-145.50;100.00;65435.88;5043067;28;20297;-73
2023/10/01 02:34:08;;;;;;;13.32;7.90;;;;;;;-145.50;100.00;65435.88;5058847;28;20055;-72
2023/10/01 02:36:36;;;;;;;13.25;7.32;;;;;;;-145.50;100.00;65435.88;5060780;28;20151;-71
2023/10/01 02:39:10;;;;;;;13.43;7.13;;;;;;;-145.50;100.00;65435.88;5046170;28;20324;-72
2023/10/01 02:41:40;;;;;;;10.82;6.80;;;;;;;-145.50;100.00;65435.88;5052872;28;20729;-72
2023/10/01 02:44:11;;;;;;;12.50;7.72;;;;;;;-145.50;100.00;65435.88;5054777;28;20056;-73
2023/10/01 02:46:37;;;;;;;13.45;8.18;;;;;;;-145.50;100.00;65435.88;5061716;28;20143;-72
2023/10/01 02:49:05;;;;;;;13.38;8.15;;;;;;;-145.50;100.00;65435.88;5058910;28;20066;-73
2023/10/01 02:51:32;;;;;;;13.88;7.80;;;;;;;-145.50;100.00;65435.88;5053774;28;20519;-73
2023/10/01 02:54:09;;;;;;;14.38;7.38;;;;;;;-145.50;100.00;65435.88;5059088;28;20060;-72
2023/10/01 02:56:37;;;;;;;15.88;7.43;;;;;;;-145.50;100.00;65435.88;5050845;28;20114;-72
2023/10/01 02:59:10;;;;;;;15.38;7.53;;;;;;;-145.50;100.00;65435.88;5049528;28;20048;-72
2023/10/01 03:01:38;;;;;;;14.18;7.45;;;;;;;-145.50;100.00;65435.88;5050709;28;20049;-71
2023/10/01 03:04:18;;;;;;;12.57;6.25;;;;;;;-145.50;100.00;65435.88;5049560;28;20064;-72
2023/10/01 03:06:55;;;;;;;13.45;6.15;;;;;;;-145.50;100.00;65435.88;5054523;28;20673;-73
2023/10/01 03:09:34;;;;;;;12.55;6.13;;;;;;;-145.50;100.00;65435.88;5040318;28;20080;-73
2023/10/01 03:15:16;;;;;;;12.48;6.35;;;;;;;-145.50;100.00;65435.88;5061917;28;20051;-72
2023/10/01 03:17:56;;;;;;;11.05;5.72;;;;;;;-145.50;100.00;65435.88;5068130;28;20052;-71
2023/10/01 03:23:07;;;;;;;12.18;5.78;;;;;;;-145.50;100.00;65435.88;5062837;28;20057;-72
2023/10/01 03:25:40;;;;;;;10.85;6.00;;;;;;;-145.50;100.00;65435.88;5059511;28;20334;-72
2023/10/01 03:28:12;;;;;;;14.85;6.13;;;;;;;-145.50;100.00;65435.88;5064336;28;20358;-72
2023/10/01 03:30:46;;;;;;;11.95;5.40;;;;;;;-145.50;100.00;65435.88;5041722;28;20056;-72
2023/10/01 03:33:16;;;;;;;10.38;5.00;;;;;;;-145.50;100.00;65435.88;5045839;28;20056;-71
2023/10/01 03:35:48;;;;;;;11.30;5.10;;;;;;;-145.50;100.00;65435.88;5063322;28;20055;-71
2023/10/01 03:38:15;;;;;;;10.02;5.45;;;;;;;-145.50;100.00;65435.88;5040716;28;20049;-71
2023/10/01 03:41:20;;;;;;;13.82;5.22;;;;;;;-145.50;100.00;65435.88;5059607;28;20056;-72
2023/10/01 03:43:36;;;;;;;10.10;5.32;;;;;;;-145.50;100.00;65435.88;5042133;28;20653;-71
2023/10/01 03:49:00;;;;;;;11.90;5.70;;;;;;;-145.50;100.00;65435.88;5046240;28;20052;-71
2023/10/01 03:54:26;;;;;;;14.13;6.68;;;;;;;-145.50;100.00;65435.88;5054578;28;20067;-71
2023/10/01 03:56:57;;;;;;;9.43;4.60;;;;;;;-145.50;100.00;65435.88;5047206;28;20394;-72
2023/10/01 03:59:32;;;;;;;12.65;5.07;;;;;;;-145.50;100.00;65435.88;5060835;28;20138;-72
2023/10/01 04:01:59;;;;;;;9.77;5.05;;;;;;;-145.50;100.00;65435.88;5039869;28;20053;-71
2023/10/01 04:04:28;;;;;;;9.50;5.03;;;;;;;-145.50;100.00;65435.88;5056463;28;20047;-72
2023/10/01 04:06:56;;;;;;;10.88;4.78;;;;;;;-145.50;100.00;65435.88;5048561;28;20552;-71
2023/10/01 04:09:26;;;;;;;;;;;;;;;-145.50;100.00;65435.88;5059819;28;20136;-71
2023/10/01 04:12:18;;;;;;;15.60;5.05;;;;;;;-145.50;100.00;65435.88;5040426;28;20419;-73
2023/10/01 04:14:49;;;;;;;10.93;4.90;;;;;;;-145.50;100.00;65435.88;5059811;28;20048;-71
2023/10/01 04:17:17;;;;;;;10.35;4.38;;;;;;;-145.50;100.00;65435.88;5057215;28;20048;-71
2023/10/01 04:19:49;;;;;;;11.98;5.45;;;;;;;-145.50;100.00;65435.88;5064642;28;20052;-72
2023/10/01 04:22:18;;;;;;;11.57;5.03;;;;;;;-145.50;100.00;65435.88;5065918;28;20059;-72
2023/10/01 04:25:00;;;;;;;10.95;4.82;;;;;;;-145.50;100.00;65435.88;5058874;28;20048;-72
2023/10/01 04:27:30;;;;;;;9.20;4.13;;;;;;;-145.50;100.00;65435.88;5061163;28;20048;-71
2023/10/01 04:30:00;;;;;;;12.68;5.38;;;;;;;-145.50;100.00;65435.88;5052342;28;20063;-72
2023/10/01 04:32:27;;;;;;;12.13;4.85;;;;;;;-145.50;100.00;65435.88;5065687;28;20794;-72
2023/10/01 04:34:58;;;;;;;12.40;4.85;;;;;;;-145.50;100.00;65435.88;5055411;28;20037;-72
2023/10/01 04:37:37;;;;;;;13.10;5.07;;;;;;;-145.50;100.00;65435.88;5062632;28;20059;-71
2023/10/01 04:40:06;;;;;;;12.95;5.45;;;;;;;-145.50;100.00;65435.88;5049975;28;20061;-72
2023/10/01 04:42:37;;;;;;;13.35;5.45;;;;;;;-145.50;100.00;65435.88;5051235;28;20048;-72
2023/10/01 04:45:22;;;;;;;11.60;5.22;;;;;;;-145.50;100.00;65435.88;5063407;28;20063;-71
2023/10/01 04:47:55;;;;;;;11.05;4.43;;;;;;;-145.50;100.00;65435.88;5046338;28;20080;-72
2023/10/01 04:50:27;;;;;;;12.02;4.75;;;;;;;-145.50;100.00;65435.88;5059794;28;20061;-76
2023/10/01 04:52:58;;;;;;;14.45;5.90;;;;;;;-145.50;100.00;65435.88;5041927;28;20619;-72
2023/10/01 04:55:28;;;;;;;13.75;5.57;;;;;;;-145.50;100.00;65435.88;5049564;28;20080;-71
2023/10/01 04:57:57;;;;;;;16.90;5.10;;;;;;;-145.50;100.00;65435.88;5039731;28;20053;-74
2023/10/01 05:00:25;;;;;;;9.55;5.10;;;;;;;-145.50;100.00;65435.88;5045559;28;20060;-72
2023/10/01 05:02:52;;;;;;;14.38;5.97;;;;;;;-145.50;100.00;65435.88;5052972;28;20069;-72
2023/10/01 05:05:27;;;;;;;14.88;5.28;;;;;;;-145.50;100.00;65435.88;5049844;28;20087;-72
2023/10/01 05:07:56;;;;;;;10.88;4.93;;;;;;;-145.50;100.00;65435.88;5052416;28;20049;-71
2023/10/01 05:10:26;;;;;;;;;;;;;;;-145.50;100.00;65435.88;5032922;28;20049;-72
2023/10/01 05:13:02;;;;;;;14.85;5.32;;;;;;;-145.50;100.00;65435.88;5047785;28;20441;-71
2023/10/01 05:15:35;;;;;;;10.25;5.18;;;;;;;-145.50;100.00;65435.88;5057251;28;20048;-72
2023/10/01 05:18:02;;;;;;;15.80;5.75;;;;;;;-145.50;100.00;65435.88;5064047;28;20056;-72
2023/10/01 05:20:29;;;;;;;12.60;5.50;;;;;;;-145.50;100.00;65435.88;5061617;28;20520;-71
2023/10/01 05:22:59;;;;;;;13.68;5.88;;;;;;;-145.50;100.00;65435.88;5037270;28;20052;-71
2023/10/01 05:25:26;;;;;;;10.25;5.25;;;;;;;-145.50;100.00;65435.88;5047881;28;20576;-71
2023/10/01 05:27:58;;;;;;;14.88;6.35;;;;;;;-145.50;100.00;65435.88;5041815;28;20052;-71
2023/10/01 05:30:42;;;;;;;14.45;6.18;;;;;;;-145.50;100.00;65435.88;5047977;28;20140;-71
2023/10/01 05:33:12;;;;;;;11.55;5.32;;;;;;;-145.50;100.00;65435.88;5044160;28;20056;-73
2023/10/01 05:35:41;;;;;;;14.60;5.55;;;;;;;-145.50;100.00;65435.88;5052184;28;20786;-72
2023/10/01 05:38:10;;;;;;;13.35;5.68;;;;;;;-145.50;100.00;65435.88;5052288;28;20052;-72
2023/10/01 05:40:40;;;;;;;12.32;5.68;;;;;;;-145.50;100.00;65435.88;5038222;28;20054;-71
2023/10/01 05:43:15;;;;;;;10.55;5.35;;;;;;;-145.50;100.00;65435.88;5061185;28;20801;-72
2023/10/01 05:45:50;;;;;;;13.77;5.60;;;;;;;-145.50;100.00;65435.88;5051273;28;20048;-72
2023/10/01 05:48:20;;;;;;;11.43;5.53;;;;;;;-145.50;100.00;65435.88;5063888;28;20052;-72
2023/10/01 05:50:47;;;;;;;14.23;5.50;;;;;;;-145.50;100.00;65435.88;5051413;28;20075;-73
2023/10/01 05:53:13;;;;;;;12.15;5.55;;;;;;;-145.50;100.00;65435.88;5036726;28;20060;-72
2023/10/01 05:55:41;;;;;;;13.63;6.28;;;;;;;-145.50;100.00;65435.88;5058704;28;20048;-72
2023/10/01 05:58:13;;;;;;;14.90;5.90;;;;;;;-145.50;100.00;65435.88;5046814;28;20060;-72
2023/10/01 06:00:56;;;;;;;12.45;5.55;;;;;;;-145.50;100.00;65435.88;5052167;28;20045;-72
2023/10/01 06:03:25;;;;;;;13.32;5.63;;;;;;;-145.50;100.00;65435.88;5039242;28;20097;-72
2023/10/01 06:05:58;;;;;;;12.82;5.55;;;;;;;-145.50;100.00;65435.88;5043899;28;20155;-72
2023/10/01 06:08:44;;;;;;;11.50;5.43;;;;;;;-145.50;100.00;65435.88;5042914;28;20143;-72
2023/10/01 06:11:18;;;;;;;13.70;5.30;;;;;;;-145.50;100.00;65435.88;5056283;28;20382;-71
2023/10/01 06:13:49;;;;;;;13.07;5.95;;;;;;;-145.50;100.00;65435.88;5053205;28;20048;-72
2023/10/01 06:16:22;;;;;;;13.88;5.65;;;;;;;-145.50;100.00;65435.88;5062395;28;20161;-71
2023/10/01 06:18:57;;;;;;;11.07;5.70;;;;;;;-145.50;100.00;65435.88;5064283;28;20667;-73
2023/10/01 06:21:27;;;;;;;11.88;5.30;;;;;;;-145.50;100.00;65435.88;5051876;28;20063;-71
2023/10/01 06:23:58;;;;;;;12.75;6.18;;;;;;;-145.50;100.00;65435.88;5063918;28;20136;-71
2023/10/01 06:26:33;;;;;;;14.68;6.32;;;;;;;-145.50;100.00;65435.88;5056721;28;20162;-71
2023/10/01 06:29:02;;;;;;;14.85;6.55;;;;;;;-145.50;100.00;65435.88;5063155;28;20661;-71
2023/10/01 06:31:47;;;;;;;12.93;5.93;;;;;;;-145.50;100.00;65435.88;5056515;28;20056;-71
2023/10/01 06:34:19;;;;;;;13.57;5.18;;;;;;;-145.50;100.00;65435.88;5059753;28;20056;-72
2023/10/01 06:36:58;;;;;;;14.52;6.05;;;;;;;-145.50;100.00;65435.88;5048543;28;20052;-71
2023/10/01 06:39:35;;;;;;;15.48;6.05;;;;;;;-145.50;100.00;65435.88;5062237;28;20064;-72
2023/10/01 06:42:18;;;;;;;15.02;6.45;;;;;;;-145.50;100.00;65435.88;5061079;28;20071;-72
2023/10/01 06:44:52;;;;;;;13.68;5.72;;;;;;;-145.50;100.00;65435.88;5059730;28;20052;-72
2023/10/01 06:47:22;;;;;;;12.13;5.80;;;;;;;-145.50;100.00;65435.88;5056417;28;20044;-72
2023/10/01 06:49:57;;;;;;;17.45;6.10;;;;;;;-145.50;100.00;65435.88;5052385;28;20800;-72
2023/10/01 06:52:28;;;;;;;17.52;6.90;;;;;;;-145.50;100.00;65435.88;5058333;28;20041;-73
2023/10/01 06:54:56;;;;;;;13.95;5.90;;;;;;;-145.50;100.00;65435.88;5039240;28;20142;-72
2023/10/01 06:57:28;;;;;;;14.45;5.57;;;;;;;-145.50;100.00;65435.88;5062095;28;20105;-72
2023/10/01 06:59:56;;;;;;;14.88;6.05;;;;;;;-145.50;100.00;65435.88;5056795;28;20056;-71
2023/10/01 07:02:25;;;;;;;17.08;5.75;;;;;;;-145.50;100.00;65435.88;5047895;28;20060;-72
2023/10/01 07:04:56;;;;;;;15.40;6.40;;;;;;;-145.50;100.00;65435.88;5054260;28;20053;-72
2023/10/01 07:07:40;;;;;;;13.02;5.97;;;;;;;-145.50;100.00;65435.88;5053181;28;20353;-71
2023/10/01 07:10:10;;;;;;;14.82;5.97;;;;;;;-145.50;100.00;65435.88;5052863;28;20056;-72
2023/10/01 07:12:38;;;;;;;15.23;6.60;;;;;;;-145.50;100.00;65435.88;5042195;28;20048;-72
2023/10/01 07:15:06;;;;;;;14.38;6.43;;;;;;;-145.50;100.00;65435.88;5046290;28;20049;-73
2023/10/01 07:17:35;;;;;;;13.68;6.28;;;;;;;-145.50;100.00;65435.88;5052428;28;20710;-72
2023/10/01 07:20:18;;;;;;;15.07;5.90;;;;;;;-145.50;100.00;65435.88;5059403;28;20059;-71
2023/10/01 07:22:45;;;;;;;13.00;6.53;;;;;;;-145.50;100.00;65435.88;5058192;28;20413;-73
2023/10/01 07:25:28;;;;;;;14.15;6.35;;;;;;;-145.50;100.00;65435.88;5060886;28;20139;-72
2023/10/01 07:27:55;;;;;;;15.00;6.25;;;;;;;-145.50;100.00;65435.88;5062804;28;20456;-72
2023/10/01 07:30:39;;;;;;;13.70;6.30;;;;;;;-145.50;100.00;65435.88;5037429;28;20527;-72
2023/10/01 07:33:06;;;;;;;11.65;6.18;;;;;;;-145.50;100.00;65435.88;5052684;28;20157;-71
2023/10/01 07:35:39;;;;;;;12.90;6.05;;;;;;;-145.50;100.00;65435.88;5045593;28;20491;-72
2023/10/01 07:38:06;;;;;;;15.65;6.57;;;;;;;-145.50;100.00;65435.88;5062385;28;20484;-71
2023/10/01 07:40:52;;;;;;;14.67;6.23;;;;;;;-145.50;100.00;65435.88;5039666;28;20045;-72
2023/10/01 07:43:18;;;;;;;13.50;6.65;;;;;;;-145.50;100.00;65435.88;5058102;28;20068;-73
2023/10/01 07:45:55;;;;;;;14.73;6.00;;;;;;;-145.50;100.00;65435.88;5042863;28;20558;-72
2023/10/01 07:48:23;;;;;;;17.98;6.10;;;;;;;-145.50;100.00;65435.88;5064809;28;20078;-73
2023/10/01 07:50:53;;;;;;;16.60;6.63;;;;;;;-145.50;100.00;65435.88;5065515;28;20052;-71
2023/10/01 07:53:20;;;;;;;14.73;7.05;;;;;;;-145.50;100.00;65435.88;5058486;28;20052;-72
2023/10/01 07:55:46;;;;;;;14.68;6.72;;;;;;;-145.50;100.00;65435.88;5052743;28;20048;-72
2023/10/01 07:58:24;;;;;;;16.58;6.78;;;;;;;-145.50;100.00;65435.88;5054374;28;20052;-72
2023/10/01 08:01:32;;;;;;;16.30;6.53;;;;;;;-145.50;100.00;65435.88;5059203;28;20205;-72
2023/10/01 08:03:55;;;;;;;14.30;6.35;;;;;;;-145.50;100.00;65435.88;5046853;28;20056;-71
2023/10/01 08:06:30;;;;;;;15.00;6.65;;;;;;;-145.50;100.00;65435.88;5063085;28;20131;-72
2023/10/01 08:09:01;;;;;;;15.77;6.85;;;;;;;-145.50;100.00;65435.88;5046128;28;20037;-73
2023/10/01 08:14:16;;;;;;;16.75;6.40;;;;;;;-145.50;100.00;65435.88;5045699;28;20179;-72
2023/10/01 08:16:48;;;;;;;18.58;7.40;;;;;;;-145.50;100.00;65435.88;5068136;28;20052;-72
2023/10/01 08:19:22;;;;;;;17.25;7.68;;;;;;;-145.50;100.00;65435.88;5075545;28;20053;-73
2023/10/01 08:21:53;;;;;;;17.92;7.47;;;;;;;-145.50;100.00;65435.88;5073310;28;20045;-73
2023/10/01 08:24:23;;;;;;;17.35;7.15;;;;;;;-145.50;100.00;65435.88;5070512;28;20078;-73
2023/10/01 08:27:03;;;;;;;16.73;7.78;;;;;;;-145.50;100.00;65435.88;5053488;28;20491;-73
2023/10/01 08:29:59;;;;;;;16.58;7.82;;;;;;;-145.50;100.00;65435.88;5064403;28;20076;-72
2023/10/01 08:32:22;;;;;;;18.15;8.18;;;;;;;-145.50;100.00;65435.88;5058504;28;20067;-72
2023/10/01 08:35:02;;;;;;;17.85;8.20;;;;;;;-145.50;100.00;65435.88;5062893;28;20379;-72
2023/10/01 08:37:31;;;;;;;19.55;8.15;;;;;;;-145.50;100.00;65435.88;5047336;28;20052;-73
2023/10/01 08:39:58;;;;;;;19.80;7.95;;;;;;;-145.50;100.00;65435.88;5059399;28;20352;-73
2023/10/01 08:42:28;;;;;;;17.60;7.93;;;;;;;-145.50;100.00;65435.88;5058319;28;20106;-72
2023/10/01 08:45:03;;;;;;;16.50;7.55;;;;;;;-145.50;100.00;65435.88;5057083;28;20059;-73
2023/10/01 08:47:32;;;;;;;17.90;7.75;;;;;;;-145.50;100.00;65435.88;5052591;28;20045;-72
2023/10/01 08:50:19;;;;;;;21.75;7.95;;;;;;;-145.50;100.00;65435.88;5054500;28;20048;-73
2023/10/01 08:52:52;;;;;;;20.00;8.38;;;;;;;-145.50;100.00;65435.88;5046108;28;20396;-73
2023/10/01 08:55:23;;;;;;;20.35;9.05;;;;;;;-145.50;100.00;65435.88;5041088;28;20564;-73
2023/10/01 08:57:53;;;;;;;22.67;8.57;;;;;;;-145.50;100.00;65435.88;5056503;28;20083;-73
2023/10/01 09:00:23;;;;;;;19.90;8.35;;;;;;;-145.50;100.00;65435.88;5038725;28;20061;-73
2023/10/01 09:02:55;;;;;;;21.30;8.90;;;;;;;-145.50;100.00;65435.88;5049515;28;20401;-73
2023/10/01 09:05:23;;;;;;;23.73;9.45;;;;;;;-145.50;100.00;65435.88;5063167;28;20496;-73
2023/10/01 09:10:50;;;;;;;17.38;8.57;;;;;;;-145.50;100.00;65435.88;5051111;28;20052;-73
2023/10/01 09:13:20;;;;;;;18.48;7.90;;;;;;;-145.50;100.00;65435.88;5037681;28;20429;-73
2023/10/01 09:15:55;;;;;;;18.00;8.27;;;;;;;-145.50;100.00;65435.88;5058234;28;20210;-73
2023/10/01 09:18:24;;;;;;;19.63;8.27;;;;;;;-145.50;100.00;65435.88;5056883;28;20056;-73
2023/10/01 09:21:06;;;;;;;20.52;9.20;;;;;;;-145.50;100.00;65435.88;5060694;28;20049;-74
2023/10/01 09:26:40;;;;;;;16.60;7.80;;;;;;;-145.50;100.00;65435.88;5064031;28;20036;-73
2023/10/01 09:29:24;;;;;;;20.90;8.38;;;;;;;-145.50;100.00;65435.88;5053219;28;20094;-73
2023/10/01 09:31:52;;;;;;;17.95;7.93;;;;;;;-145.50;100.00;65435.88;5062006;28;20163;-74
2023/10/01 09:34:46;;;;;;;16.88;7.75;;;;;;;-145.50;100.00;65435.88;5059864;28;20469;-74
2023/10/01 09:37:30;;;;;;;18.42;8.15;;;;;;;-145.50;100.00;65435.88;5057261;28;20060;-74
2023/10/01 09:40:32;;;;;;;16.00;7.30;;;;;;;-145.50;100.00;65435.88;5050094;28;20119;-72
2023/10/01 09:43:03;;;;;;;20.05;7.90;;;;;;;-145.50;100.00;65435.88;5061011;28;20754;-72
2023/10/01 09:45:41;;;;;;;18.17;7.80;;;;;;;-145.50;100.00;65435.88;5056729;28;20118;-72
2023/10/01 09:48:23;;;;;;;;;;;;;;;-145.50;100.00;65435.88;5044726;28;20494;-72
2023/10/01 09:50:54;;;;;;;16.27;7.40;;;;;;;-145.50;100.00;65435.88;5044751;28;20157;-72
2023/10/01 09:53:24;;;;;;;18.88;7.22;;;;;;;-145.50;100.00;65435.88;5039915;28;20056;-73
2023/10/01 09:55:57;;;;;;;17.25;7.03;;;;;;;-145.50;100.00;65435.88;5049994;28;20044;-73
2023/10/01 09:58:25;;;;;;;21.98;8.18;;;;;;;-145.50;100.00;65435.88;5040585;28;20061;-72
2023/10/01 10:00:53;;;;;;;15.90;6.85;;;;;;;-145.50;100.00;65435.88;5046338;28;20490;-73
2023/10/01 10:03:21;;;;;;;18.30;8.07;;;;;;;-145.50;100.00;65435.88;5040276;28;20140;-73
2023/10/01 10:05:48;;;;;;;18.27;7.57;;;;;;;-145.50;100.00;65435.88;5050311;28;20055;-73
2023/10/01 10:08:20;;;;;;;18.55;7.65;;;;;;;-145.50;100.00;65435.88;5058725;28;20080;-72
2023/10/01 10:10:52;;;;;;;16.60;8.20;;;;;;;-145.50;100.00;65435.88;5044342;28;20497;-72
2023/10/01 10:16:30;;;;;;;17.25;7.35;;;;;;;-145.50;100.00;65435.88;5042921;28;20424;-72
2023/10/01 10:19:09;;;;;;;18.35;6.72;;;;;;;-145.50;100.00;65435.88;5050162;28;20059;-73
2023/10/01 10:24:45;;;;;;;16.65;7.72;;;;;;;-145.50;100.00;65435.88;5066056;28;20147;-72
2023/10/01 10:27:19;;;;;;;16.55;7.45;;;;;;;-145.50;100.00;65435.88;5045151;28;20057;-71
2023/10/01 10:29:56;;;;;;;18.65;7.75;;;;;;;-145.50;100.00;65435.88;5059718;28;20056;-72
2023/10/01 10:32:26;;;;;;;15.95;7.38;;;;;;;-145.50;100.00;65435.88;5051145;28;20233;-72
2023/10/01 10:35:15;;;;;;;20.75;7.20;;;;;;;-145.50;100.00;65435.88;5065427;28;20493;-72
2023/10/01 10:37:48;;;;;;;14.77;7.18;;;;;;;-145.50;100.00;65435.88;5065268;28;20053;-72
2023/10/01 10:43:07;;;;;;;17.48;7.32;;;;;;;-145.50;100.00;65435.88;5048819;28;20056;-72
2023/10/01 10:45:45;;;;;;;22.15;8.15;;;;;;;-145.50;100.00;65435.88;5040840;28;20572;-72
2023/10/01 10:48:21;;;;;;;16.02;7.68;;;;;;;-145.50;100.00;65435.88;5042218;28;20168;-72
2023/10/01 10:50:48;;;;;;;14.30;6.72;;;;;;;-145.50;100.00;65435.88;5051582;28;20061;-72
2023/10/01 10:53:20;;;;;;;19.48;7.88;;;;;;;-145.50;100.00;65435.88;5045914;28;20056;-72
2023/10/01 10:56:00;;;;;;;18.38;7.15;;;;;;;-145.50;100.00;65435.88;5041190;28;20063;-72
2023/10/01 10:58:31;;;;;;;18.30;7.70;;;;;;;-145.50;100.00;65435.88;5045210;28;20056;-72
2023/10/01 11:01:19;;;;;;;19.58;7.78;;;;;;;-145.50;100.00;65435.88;5040805;28;21159;-72
2023/10/01 11:03:53;;;;;;;15.18;7.25;;;;;;;-145.50;100.00;65435.88;5052424;28;20053;-72
2023/10/01 11:06:24;;;;;;;14.57;7.25;;;;;;;-145.50;100.00;65435.88;5059493;28;20118;-72
2023/10/01 11:08:53;;;;;;;17.52;7.75;;;;;;;-145.50;100.00;65435.88;5053443;28;20056;-72
2023/10/01 11:11:23;;;;;;;16.98;7.22;;;;;;;-145.50;100.00;65435.88;5059085;28;20437;-72
2023/10/01 11:14:15;;;;;;;16.08;7.30;;;;;;;-145.50;100.00;65435.88;5051412;28;20127;-72
2023/10/01 11:16:48;;;;;;;16.25;7.50;;;;;;;-145.50;100.00;65435.88;5047968;28;20044;-71
2023/10/01 11:19:17;;;;;;;18.65;7.82;;;;;;;-145.50;100.00;65435.88;5040994;28;20117;-72
2023/10/01 11:21:55;;;;;;;15.90;7.63;;;;;;;-145.50;100.00;65435.88;5058249;28;20055;-72
2023/10/01 11:24:29;;;;;;;17.80;8.00;;;;;;;-145.50;100.00;65435.88;5051561;28;20078;-72
2023/10/01 11:27:43;;;;;;;16.08;7.85;;;;;;;-145.50;100.00;65435.88;5063229;28;20044;-72
2023/10/01 11:30:13;;;;;;;15.45;7.18;;;;;;;-145.50;100.00;65435.88;5052945;28;20084;-72
2023/10/01 11:33:12;;;;;;;15.98;7.18;;;;;;;-145.50;100.00;65435.88;5055044;28;20052;-72
2023/10/01 11:35:59;;;;;;;15.65;7.78;;;;;;;-145.50;100.00;65435.88;5056612;28;20053;-72
2023/10/01 11:38:27;;;;;;;18.10;6.83;;;;;;;-145.50;100.00;65435.88;5057675;28;20052;-72
2023/10/01 11:41:18;;;;;;;17.05;7.25;;;;;;;-145.50;100.00;65435.88;5054392;28;20349;-72
2023/10/01 11:43:58;;;;;;;17.52;7.03;;;;;;;-145.50;100.00;65435.88;5045284;28;20041;-72
2023/10/01 11:46:39;;;;;;;15.93;7.50;;;;;;;-145.50;100.00;65435.88;5055805;28;20050;-72
2023/10/01 11:49:06;;;;;;;11.88;6.43;;;;;;;-145.50;100.00;65435.88;5052824;28;20054;-72
2023/10/01 11:51:50;;;;;;;17.03;7.00;;;;;;;-145.50;100.00;65435.88;5063362;28;20441;-72
2023/10/01 11:54:19;;;;;;;15.82;6.97;;;;;;;-145.50;100.00;65435.88;5056784;28;20515;-72
2023/10/01 11:57:01;;;;;;;14.23;6.40;;;;;;;-145.50;100.00;65435.88;5041676;28;20049;-72
2023/10/01 11:59:28;;;;;;;15.25;6.43;;;;;;;-145.50;100.00;65435.88;5045703;28;20063;-72
2023/10/01 12:01:56;;;;;;;15.48;6.82;;;;;;;-145.50;100.00;65435.88;5061233;28;20411;-73